sensor_id;sensor_type;location;lat;lon;timestamp;temperature;humidity
16038;DHT22;8123;50.906;6.172;2023-03-23T00:01:26;12.50;99.90
16038;DHT22;8123;50.906;6.172;2023-03-23T00:03:55;12.60;99.90
16038;DHT22;8123;50.906;6.172;2023-03-23T00:06:26;12.60;99.90
16038;DHT22;8123;50.906;6.172;2023-03-23T00:08:53;12.60;99.90
16038;DHT22;8123;50.906;6.172;2023-03-23T00:11:26;12.50;99.90
16038;DHT22;8123;50.906;6.172;2023-03-23T00:13:55;12.50;99.90
16038;DHT22;8123;50.906;6.172;2023-03-23T00:16:24;12.60;99.90
16038;DHT22;8123;50.906;6.172;2023-03-23T00:19:02;12.50;99.90
16038;DHT22;8123;50.906;6.172;2023-03-23T00:21:33;12.60;99.90
16038;DHT22;8123;50.906;6.172;2023-03-23T00:24:08;12.60;99.90
16038;DHT22;8123;50.906;6.172;2023-03-23T00:26:36;12.60;99.90
16038;DHT22;8123;50.906;6.172;2023-03-23T00:29:07;12.60;99.90
16038;DHT22;8123;50.906;6.172;2023-03-23T00:31:37;12.60;99.90
16038;DHT22;8123;50.906;6.172;2023-03-23T00:34:04;12.50;99.90
16038;DHT22;8123;50.906;6.172;2023-03-23T00:36:31;12.40;99.90
16038;DHT22;8123;50.906;6.172;2023-03-23T00:38:57;12.50;99.90
16038;DHT22;8123;50.906;6.172;2023-03-23T00:41:25;12.40;99.90
16038;DHT22;8123;50.906;6.172;2023-03-23T00:43:53;12.40;99.90
16038;DHT22;8123;50.906;6.172;2023-03-23T00:46:19;12.40;99.90
16038;DHT22;8123;50.906;6.172;2023-03-23T00:48:46;12.40;99.90
16038;DHT22;8123;50.906;6.172;2023-03-23T00:51:12;12.50;99.90
16038;DHT22;8123;50.906;6.172;2023-03-23T00:53:39;12.40;99.90
16038;DHT22;8123;50.906;6.172;2023-03-23T00:56:06;12.40;99.90
16038;DHT22;8123;50.906;6.172;2023-03-23T00:58:32;12.50;99.90
16038;DHT22;8123;50.906;6.172;2023-03-23T01:00:57;12.40;99.90
16038;DHT22;8123;50.906;6.172;2023-03-23T01:03:23;12.50;99.90
16038;DHT22;8123;50.906;6.172;2023-03-23T01:05:52;12.40;99.90
16038;DHT22;8123;50.906;6.172;2023-03-23T01:08:18;12.40;99.90
16038;DHT22;8123;50.906;6.172;2023-03-23T01:10:45;12.40;99.90
16038;DHT22;8123;50.906;6.172;2023-03-23T01:13:11;12.30;99.90
16038;DHT22;8123;50.906;6.172;2023-03-23T01:15:37;12.20;99.90
16038;DHT22;8123;50.906;6.172;2023-03-23T01:18:03;12.20;99.90
16038;DHT22;8123;50.906;6.172;2023-03-23T01:20:29;12.10;99.90
16038;DHT22;8123;50.906;6.172;2023-03-23T01:22:59;12.10;99.90
16038;DHT22;8123;50.906;6.172;2023-03-23T01:25:34;12.10;99.90
16038;DHT22;8123;50.906;6.172;2023-03-23T01:28:00;12.10;99.90
16038;DHT22;8123;50.906;6.172;2023-03-23T01:30:27;12.00;99.90
16038;DHT22;8123;50.906;6.172;2023-03-23T01:32:54;11.90;99.90
16038;DHT22;8123;50.906;6.172;2023-03-23T01:35:19;11.90;99.90
16038;DHT22;8123;50.906;6.172;2023-03-23T01:37:45;11.90;99.90
16038;DHT22;8123;50.906;6.172;2023-03-23T01:40:14;11.90;99.90
16038;DHT22;8123;50.906;6.172;2023-03-23T01:42:39;11.90;99.90
16038;DHT22;8123;50.906;6.172;2023-03-23T01:45:24;11.90;99.90
16038;DHT22;8123;50.906;6.172;2023-03-23T01:50:23;11.90;99.90
16038;DHT22;8123;50.906;6.172;2023-03-23T01:52:53;12.00;99.90
16038;DHT22;8123;50.906;6.172;2023-03-23T01:55:21;12.00;99.90
16038;DHT22;8123;50.906;6.172;2023-03-23T01:57:47;12.00;99.90
16038;DHT22;8123;50.906;6.172;2023-03-23T02:00:14;12.00;99.90
16038;DHT22;8123;50.906;6.172;2023-03-23T02:02:45;12.00;99.90
16038;DHT22;8123;50.906;6.172;2023-03-23T02:05:15;12.00;99.90
16038;DHT22;8123;50.906;6.172;2023-03-23T02:07:43;12.00;99.90
16038;DHT22;8123;50.906;6.172;2023-03-23T02:10:10;11.90;99.90
16038;DHT22;8123;50.906;6.172;2023-03-23T02:12:35;12.00;99.90
16038;DHT22;8123;50.906;6.172;2023-03-23T02:15:02;11.90;99.90
16038;DHT22;8123;50.906;6.172;2023-03-23T02:17:57;11.90;99.90
16038;DHT22;8123;50.906;6.172;2023-03-23T02:20:48;12.00;99.90
16038;DHT22;8123;50.906;6.172;2023-03-23T02:26:19;11.90;99.90
16038;DHT22;8123;50.906;6.172;2023-03-23T02:29:08;12.00;99.90
16038;DHT22;8123;50.906;6.172;2023-03-23T02:32:00;12.00;99.90
16038;DHT22;8123;50.906;6.172;2023-03-23T02:37:23;12.10;99.90
16038;DHT22;8123;50.906;6.172;2023-03-23T02:39:55;12.10;99.90
16038;DHT22;8123;50.906;6.172;2023-03-23T02:42:26;12.10;99.90
16038;DHT22;8123;50.906;6.172;2023-03-23T02:44:54;12.20;99.90
16038;DHT22;8123;50.906;6.172;2023-03-23T02:47:24;12.10;99.90
16038;DHT22;8123;50.906;6.172;2023-03-23T02:49:54;12.20;99.90
16038;DHT22;8123;50.906;6.172;2023-03-23T02:52:27;12.20;99.90
16038;DHT22;8123;50.906;6.172;2023-03-23T02:54:55;12.20;99.90
16038;DHT22;8123;50.906;6.172;2023-03-23T02:57:24;12.20;99.90
16038;DHT22;8123;50.906;6.172;2023-03-23T02:59:51;12.20;99.90
16038;DHT22;8123;50.906;6.172;2023-03-23T03:02:33;12.20;99.90
16038;DHT22;8123;50.906;6.172;2023-03-23T03:11:09;12.20;99.90
16038;DHT22;8123;50.906;6.172;2023-03-23T03:21:47;12.20;99.90
16038;DHT22;8123;50.906;6.172;2023-03-23T03:24:17;12.20;99.90
16038;DHT22;8123;50.906;6.172;2023-03-23T03:26:47;12.10;99.90
16038;DHT22;8123;50.906;6.172;2023-03-23T03:29:16;12.20;99.90
16038;DHT22;8123;50.906;6.172;2023-03-23T03:31:43;12.20;99.90
16038;DHT22;8123;50.906;6.172;2023-03-23T03:34:14;12.20;99.90
16038;DHT22;8123;50.906;6.172;2023-03-23T03:36:46;12.20;99.90
16038;DHT22;8123;50.906;6.172;2023-03-23T03:39:14;12.20;99.90
16038;DHT22;8123;50.906;6.172;2023-03-23T03:41:41;12.20;99.90
16038;DHT22;8123;50.906;6.172;2023-03-23T03:44:07;12.20;99.90
16038;DHT22;8123;50.906;6.172;2023-03-23T03:46:34;12.20;99.90
16038;DHT22;8123;50.906;6.172;2023-03-23T03:49:02;12.20;99.90
16038;DHT22;8123;50.906;6.172;2023-03-23T03:51:30;12.20;99.90
16038;DHT22;8123;50.906;6.172;2023-03-23T03:53:56;12.20;99.90
16038;DHT22;8123;50.906;6.172;2023-03-23T03:56:22;12.20;99.90
16038;DHT22;8123;50.906;6.172;2023-03-23T03:58:49;12.10;99.90
16038;DHT22;8123;50.906;6.172;2023-03-23T04:01:16;12.10;99.90
16038;DHT22;8123;50.906;6.172;2023-03-23T04:03:43;12.20;99.90
16038;DHT22;8123;50.906;6.172;2023-03-23T04:06:10;12.20;99.90
16038;DHT22;8123;50.906;6.172;2023-03-23T04:08:38;12.20;99.90
16038;DHT22;8123;50.906;6.172;2023-03-23T04:11:07;12.10;99.90
16038;DHT22;8123;50.906;6.172;2023-03-23T04:13:32;12.10;99.90
16038;DHT22;8123;50.906;6.172;2023-03-23T04:15:58;12.10;99.90
16038;DHT22;8123;50.906;6.172;2023-03-23T04:18:23;12.20;99.90
16038;DHT22;8123;50.906;6.172;2023-03-23T04:20:50;12.10;99.90
16038;DHT22;8123;50.906;6.172;2023-03-23T04:23:17;12.10;99.90
16038;DHT22;8123;50.906;6.172;2023-03-23T04:25:48;12.10;99.90
16038;DHT22;8123;50.906;6.172;2023-03-23T04:28:15;12.10;99.90
16038;DHT22;8123;50.906;6.172;2023-03-23T04:30:45;12.10;99.90
16038;DHT22;8123;50.906;6.172;2023-03-23T04:33:14;12.10;99.90
16038;DHT22;8123;50.906;6.172;2023-03-23T04:35:42;12.10;99.90
16038;DHT22;8123;50.906;6.172;2023-03-23T04:38:08;12.00;99.90
16038;DHT22;8123;50.906;6.172;2023-03-23T04:40:38;12.00;99.90
16038;DHT22;8123;50.906;6.172;2023-03-23T04:43:05;12.00;99.90
16038;DHT22;8123;50.906;6.172;2023-03-23T04:45:32;12.00;99.90
16038;DHT22;8123;50.906;6.172;2023-03-23T04:47:58;12.00;99.90
16038;DHT22;8123;50.906;6.172;2023-03-23T04:50:31;11.90;99.90
16038;DHT22;8123;50.906;6.172;2023-03-23T04:52:58;11.90;99.90
16038;DHT22;8123;50.906;6.172;2023-03-23T04:55:30;11.90;99.90
16038;DHT22;8123;50.906;6.172;2023-03-23T04:57:56;11.90;99.90
16038;DHT22;8123;50.906;6.172;2023-03-23T05:00:25;11.90;99.90
16038;DHT22;8123;50.906;6.172;2023-03-23T05:02:51;12.00;99.90
16038;DHT22;8123;50.906;6.172;2023-03-23T05:05:19;11.90;99.90
16038;DHT22;8123;50.906;6.172;2023-03-23T05:07:45;11.90;99.90
16038;DHT22;8123;50.906;6.172;2023-03-23T05:10:12;11.90;99.90
16038;DHT22;8123;50.906;6.172;2023-03-23T05:12:38;11.80;99.90
16038;DHT22;8123;50.906;6.172;2023-03-23T05:15:05;11.80;99.90
16038;DHT22;8123;50.906;6.172;2023-03-23T05:17:32;11.80;99.90
16038;DHT22;8123;50.906;6.172;2023-03-23T05:19:58;11.80;99.90
16038;DHT22;8123;50.906;6.172;2023-03-23T05:22:26;11.80;99.90
16038;DHT22;8123;50.906;6.172;2023-03-23T05:24:52;11.70;99.90
16038;DHT22;8123;50.906;6.172;2023-03-23T05:27:18;11.80;99.90
16038;DHT22;8123;50.906;6.172;2023-03-23T05:29:45;11.70;99.90
16038;DHT22;8123;50.906;6.172;2023-03-23T05:32:15;11.70;99.90
16038;DHT22;8123;50.906;6.172;2023-03-23T05:34:41;11.70;99.90
16038;DHT22;8123;50.906;6.172;2023-03-23T05:37:08;11.70;99.90
16038;DHT22;8123;50.906;6.172;2023-03-23T05:39:35;11.70;99.90
16038;DHT22;8123;50.906;6.172;2023-03-23T05:42:03;11.60;99.90
16038;DHT22;8123;50.906;6.172;2023-03-23T05:44:29;11.60;99.90
16038;DHT22;8123;50.906;6.172;2023-03-23T05:46:55;11.60;99.90
16038;DHT22;8123;50.906;6.172;2023-03-23T05:49:20;11.70;99.90
16038;DHT22;8123;50.906;6.172;2023-03-23T05:51:46;11.60;99.90
16038;DHT22;8123;50.906;6.172;2023-03-23T05:54:13;11.70;99.90
16038;DHT22;8123;50.906;6.172;2023-03-23T05:56:40;11.70;99.90
16038;DHT22;8123;50.906;6.172;2023-03-23T05:59:06;11.70;99.90
16038;DHT22;8123;50.906;6.172;2023-03-23T06:01:32;11.80;99.90
16038;DHT22;8123;50.906;6.172;2023-03-23T06:03:58;11.80;99.90
16038;DHT22;8123;50.906;6.172;2023-03-23T06:06:28;11.80;99.90
16038;DHT22;8123;50.906;6.172;2023-03-23T06:08:55;11.80;99.90
16038;DHT22;8123;50.906;6.172;2023-03-23T06:11:21;11.80;99.90
16038;DHT22;8123;50.906;6.172;2023-03-23T06:13:47;11.80;99.90
16038;DHT22;8123;50.906;6.172;2023-03-23T06:16:13;11.80;99.90
16038;DHT22;8123;50.906;6.172;2023-03-23T06:18:38;11.80;99.90
16038;DHT22;8123;50.906;6.172;2023-03-23T06:21:06;11.80;99.90
16038;DHT22;8123;50.906;6.172;2023-03-23T06:23:33;11.80;99.90
16038;DHT22;8123;50.906;6.172;2023-03-23T06:26:03;11.80;99.90
16038;DHT22;8123;50.906;6.172;2023-03-23T06:28:31;11.80;99.90
16038;DHT22;8123;50.906;6.172;2023-03-23T06:31:01;11.80;99.90
16038;DHT22;8123;50.906;6.172;2023-03-23T06:33:28;11.80;99.90
16038;DHT22;8123;50.906;6.172;2023-03-23T06:35:54;11.90;99.90
16038;DHT22;8123;50.906;6.172;2023-03-23T06:38:21;11.90;99.90
16038;DHT22;8123;50.906;6.172;2023-03-23T06:40:46;11.90;99.90
16038;DHT22;8123;50.906;6.172;2023-03-23T06:43:13;12.00;99.90
16038;DHT22;8123;50.906;6.172;2023-03-23T06:45:39;12.00;99.90
16038;DHT22;8123;50.906;6.172;2023-03-23T06:48:06;12.00;99.90
16038;DHT22;8123;50.906;6.172;2023-03-23T06:50:32;12.10;99.90
16038;DHT22;8123;50.906;6.172;2023-03-23T06:52:58;12.10;99.90
16038;DHT22;8123;50.906;6.172;2023-03-23T06:55:23;12.10;99.90
16038;DHT22;8123;50.906;6.172;2023-03-23T06:57:49;12.10;99.90
16038;DHT22;8123;50.906;6.172;2023-03-23T07:00:15;12.20;99.90
16038;DHT22;8123;50.906;6.172;2023-03-23T07:02:41;12.20;99.90
16038;DHT22;8123;50.906;6.172;2023-03-23T07:05:08;12.20;99.90
16038;DHT22;8123;50.906;6.172;2023-03-23T07:07:38;12.20;99.90
16038;DHT22;8123;50.906;6.172;2023-03-23T07:10:05;12.30;99.90
16038;DHT22;8123;50.906;6.172;2023-03-23T07:12:31;12.30;99.90
16038;DHT22;8123;50.906;6.172;2023-03-23T07:14:58;12.30;99.90
16038;DHT22;8123;50.906;6.172;2023-03-23T07:17:24;12.40;99.90
16038;DHT22;8123;50.906;6.172;2023-03-23T07:19:50;12.40;99.90
16038;DHT22;8123;50.906;6.172;2023-03-23T07:22:16;12.40;99.90
16038;DHT22;8123;50.906;6.172;2023-03-23T07:24:41;12.40;99.90
16038;DHT22;8123;50.906;6.172;2023-03-23T07:27:08;12.50;99.90
16038;DHT22;8123;50.906;6.172;2023-03-23T07:29:34;12.50;99.90
16038;DHT22;8123;50.906;6.172;2023-03-23T07:32:01;12.50;99.90
16038;DHT22;8123;50.906;6.172;2023-03-23T07:34:27;12.60;99.90
16038;DHT22;8123;50.906;6.172;2023-03-23T07:36:53;12.60;99.90
16038;DHT22;8123;50.906;6.172;2023-03-23T07:39:19;12.60;99.90
16038;DHT22;8123;50.906;6.172;2023-03-23T07:41:44;12.60;99.90
16038;DHT22;8123;50.906;6.172;2023-03-23T07:44:10;12.60;99.90
16038;DHT22;8123;50.906;6.172;2023-03-23T07:46:36;12.70;99.90
16038;DHT22;8123;50.906;6.172;2023-03-23T07:49:02;12.70;99.90
16038;DHT22;8123;50.906;6.172;2023-03-23T07:51:31;12.70;99.90
16038;DHT22;8123;50.906;6.172;2023-03-23T07:53:57;12.70;99.90
16038;DHT22;8123;50.906;6.172;2023-03-23T07:56:22;12.80;99.90
16038;DHT22;8123;50.906;6.172;2023-03-23T07:58:48;12.80;99.90
16038;DHT22;8123;50.906;6.172;2023-03-23T08:01:15;12.80;99.90
16038;DHT22;8123;50.906;6.172;2023-03-23T08:03:41;12.80;99.90
16038;DHT22;8123;50.906;6.172;2023-03-23T08:06:07;12.90;99.90
16038;DHT22;8123;50.906;6.172;2023-03-23T08:08:34;12.90;99.90
16038;DHT22;8123;50.906;6.172;2023-03-23T08:10:59;12.90;99.90
16038;DHT22;8123;50.906;6.172;2023-03-23T08:13:25;13.00;99.90
16038;DHT22;8123;50.906;6.172;2023-03-23T08:15:51;13.00;99.90
16038;DHT22;8123;50.906;6.172;2023-03-23T08:18:17;13.00;99.90
16038;DHT22;8123;50.906;6.172;2023-03-23T08:20:43;13.10;99.90
16038;DHT22;8123;50.906;6.172;2023-03-23T08:23:10;13.20;99.90
16038;DHT22;8123;50.906;6.172;2023-03-23T08:25:36;13.20;99.90
16038;DHT22;8123;50.906;6.172;2023-03-23T08:28:03;13.20;99.90
16038;DHT22;8123;50.906;6.172;2023-03-23T08:30:30;13.20;99.90
16038;DHT22;8123;50.906;6.172;2023-03-23T08:32:59;13.20;99.90
16038;DHT22;8123;50.906;6.172;2023-03-23T08:35:26;13.20;99.90
16038;DHT22;8123;50.906;6.172;2023-03-23T08:37:52;13.30;99.90
16038;DHT22;8123;50.906;6.172;2023-03-23T08:40:20;13.40;99.90
16038;DHT22;8123;50.906;6.172;2023-03-23T08:42:48;13.50;99.90
16038;DHT22;8123;50.906;6.172;2023-03-23T08:45:20;13.50;99.90
16038;DHT22;8123;50.906;6.172;2023-03-23T08:47:46;13.60;99.90
16038;DHT22;8123;50.906;6.172;2023-03-23T08:50:18;13.60;99.90
16038;DHT22;8123;50.906;6.172;2023-03-23T08:52:45;13.60;99.90
16038;DHT22;8123;50.906;6.172;2023-03-23T08:55:11;13.60;99.90
16038;DHT22;8123;50.906;6.172;2023-03-23T08:57:38;13.50;99.90
16038;DHT22;8123;50.906;6.172;2023-03-23T09:00:06;13.40;99.90
16038;DHT22;8123;50.906;6.172;2023-03-23T09:02:48;13.40;99.90
16038;DHT22;8123;50.906;6.172;2023-03-23T09:05:20;13.30;99.90
16038;DHT22;8123;50.906;6.172;2023-03-23T09:07:48;13.30;99.90
16038;DHT22;8123;50.906;6.172;2023-03-23T09:10:15;13.30;99.90
16038;DHT22;8123;50.906;6.172;2023-03-23T09:12:42;13.30;99.90
16038;DHT22;8123;50.906;6.172;2023-03-23T09:15:10;13.40;99.90
16038;DHT22;8123;50.906;6.172;2023-03-23T09:17:42;13.30;99.90
16038;DHT22;8123;50.906;6.172;2023-03-23T09:20:09;13.40;99.90
16038;DHT22;8123;50.906;6.172;2023-03-23T09:22:40;13.40;99.90
16038;DHT22;8123;50.906;6.172;2023-03-23T09:25:07;13.50;99.90
16038;DHT22;8123;50.906;6.172;2023-03-23T09:27:34;13.50;99.90
16038;DHT22;8123;50.906;6.172;2023-03-23T09:30:04;13.60;99.90
16038;DHT22;8123;50.906;6.172;2023-03-23T09:32:33;13.70;99.90
16038;DHT22;8123;50.906;6.172;2023-03-23T09:35:01;13.80;99.90
16038;DHT22;8123;50.906;6.172;2023-03-23T09:37:27;13.70;99.90
16038;DHT22;8123;50.906;6.172;2023-03-23T09:39:53;13.60;99.90
16038;DHT22;8123;50.906;6.172;2023-03-23T09:50:35;13.60;99.90
16038;DHT22;8123;50.906;6.172;2023-03-23T09:53:39;13.60;99.90
16038;DHT22;8123;50.906;6.172;2023-03-23T09:56:14;13.60;99.90
16038;DHT22;8123;50.906;6.172;2023-03-23T09:58:57;13.80;99.90
16038;DHT22;8123;50.906;6.172;2023-03-23T10:01:31;13.80;99.90
16038;DHT22;8123;50.906;6.172;2023-03-23T10:04:26;13.70;99.90
16038;DHT22;8123;50.906;6.172;2023-03-23T10:07:03;13.70;99.90
16038;DHT22;8123;50.906;6.172;2023-03-23T10:09:31;13.70;99.90
16038;DHT22;8123;50.906;6.172;2023-03-23T10:15:02;13.70;99.90
16038;DHT22;8123;50.906;6.172;2023-03-23T10:17:36;13.60;99.90
16038;DHT22;8123;50.906;6.172;2023-03-23T10:22:57;13.80;99.90
16038;DHT22;8123;50.906;6.172;2023-03-23T10:25:29;14.00;99.90
16038;DHT22;8123;50.906;6.172;2023-03-23T10:28:13;14.20;99.90
16038;DHT22;8123;50.906;6.172;2023-03-23T10:30:54;14.40;99.90
16038;DHT22;8123;50.906;6.172;2023-03-23T10:33:33;14.40;99.90
16038;DHT22;8123;50.906;6.172;2023-03-23T10:41:31;14.30;99.90
16038;DHT22;8123;50.906;6.172;2023-03-23T10:43:57;14.20;99.90
16038;DHT22;8123;50.906;6.172;2023-03-23T10:47:15;13.90;99.90
16038;DHT22;8123;50.906;6.172;2023-03-23T10:49:47;13.60;99.90
16038;DHT22;8123;50.906;6.172;2023-03-23T10:52:36;13.50;99.90
16038;DHT22;8123;50.906;6.172;2023-03-23T10:55:07;13.40;99.90
16038;DHT22;8123;50.906;6.172;2023-03-23T10:57:36;13.30;99.90
16038;DHT22;8123;50.906;6.172;2023-03-23T11:00:24;13.20;99.90
16038;DHT22;8123;50.906;6.172;2023-03-23T11:03:27;13.10;99.90
16038;DHT22;8123;50.906;6.172;2023-03-23T11:06:03;13.00;99.90
16038;DHT22;8123;50.906;6.172;2023-03-23T11:08:54;12.90;99.90
16038;DHT22;8123;50.906;6.172;2023-03-23T11:11:29;12.90;99.90
16038;DHT22;8123;50.906;6.172;2023-03-23T11:14:15;12.80;99.90
16038;DHT22;8123;50.906;6.172;2023-03-23T11:16:53;12.80;99.90
16038;DHT22;8123;50.906;6.172;2023-03-23T11:19:26;12.70;99.90
16038;DHT22;8123;50.906;6.172;2023-03-23T11:21:54;12.70;99.90
16038;DHT22;8123;50.906;6.172;2023-03-23T11:24:26;12.70;99.90
16038;DHT22;8123;50.906;6.172;2023-03-23T11:26:52;12.60;99.90
16038;DHT22;8123;50.906;6.172;2023-03-23T11:29:27;12.60;99.90
16038;DHT22;8123;50.906;6.172;2023-03-23T11:32:04;12.60;99.90
16038;DHT22;8123;50.906;6.172;2023-03-23T11:34:40;12.40;99.90
16038;DHT22;8123;50.906;6.172;2023-03-23T11:37:13;12.40;99.90
16038;DHT22;8123;50.906;6.172;2023-03-23T11:39:54;12.50;99.90
16038;DHT22;8123;50.906;6.172;2023-03-23T11:42:27;12.60;99.90
16038;DHT22;8123;50.906;6.172;2023-03-23T11:45:19;12.80;99.90
16038;DHT22;8123;50.906;6.172;2023-03-23T11:50:27;13.10;99.90
16038;DHT22;8123;50.906;6.172;2023-03-23T11:53:02;13.30;99.90
16038;DHT22;8123;50.906;6.172;2023-03-23T11:56:01;13.50;99.90
16038;DHT22;8123;50.906;6.172;2023-03-23T11:58:23;13.80;99.90
16038;DHT22;8123;50.906;6.172;2023-03-23T12:00:57;13.90;99.90
16038;DHT22;8123;50.906;6.172;2023-03-23T12:03:56;14.00;99.90
16038;DHT22;8123;50.906;6.172;2023-03-23T12:06:50;14.10;99.90
16038;DHT22;8123;50.906;6.172;2023-03-23T12:14:50;14.10;99.90
16038;DHT22;8123;50.906;6.172;2023-03-23T12:28:55;14.50;99.90
16038;DHT22;8123;50.906;6.172;2023-03-23T12:40:55;14.70;99.90
16038;DHT22;8123;50.906;6.172;2023-03-23T12:49:08;14.10;99.90
16038;DHT22;8123;50.906;6.172;2023-03-23T12:51:42;14.00;99.90
16038;DHT22;8123;50.906;6.172;2023-03-23T12:54:19;14.00;99.90
16038;DHT22;8123;50.906;6.172;2023-03-23T12:59:35;14.00;99.90
16038;DHT22;8123;50.906;6.172;2023-03-23T13:04:40;13.70;99.90
16038;DHT22;8123;50.906;6.172;2023-03-23T13:07:14;13.70;99.90
16038;DHT22;8123;50.906;6.172;2023-03-23T13:12:26;13.60;99.90
16038;DHT22;8123;50.906;6.172;2023-03-23T13:23:28;13.10;99.90
16038;DHT22;8123;50.906;6.172;2023-03-23T13:28:27;13.10;99.90
16038;DHT22;8123;50.906;6.172;2023-03-23T13:31:14;13.10;99.90
16038;DHT22;8123;50.906;6.172;2023-03-23T13:33:49;13.10;99.90
16038;DHT22;8123;50.906;6.172;2023-03-23T13:36:16;13.10;99.90
16038;DHT22;8123;50.906;6.172;2023-03-23T13:38:50;13.10;99.90
16038;DHT22;8123;50.906;6.172;2023-03-23T13:41:17;13.20;99.90
16038;DHT22;8123;50.906;6.172;2023-03-23T13:43:45;13.30;99.90
16038;DHT22;8123;50.906;6.172;2023-03-23T13:49:44;13.30;99.90
16038;DHT22;8123;50.906;6.172;2023-03-23T13:56:52;13.10;99.90
16038;DHT22;8123;50.906;6.172;2023-03-23T13:59:48;13.10;99.90
16038;DHT22;8123;50.906;6.172;2023-03-23T14:02:33;13.00;99.90
16038;DHT22;8123;50.906;6.172;2023-03-23T14:05:34;12.90;99.90
16038;DHT22;8123;50.906;6.172;2023-03-23T14:10:56;12.90;99.90
16038;DHT22;8123;50.906;6.172;2023-03-23T14:14:13;12.90;99.90
16038;DHT22;8123;50.906;6.172;2023-03-23T14:19:00;12.90;99.90
16038;DHT22;8123;50.906;6.172;2023-03-23T14:24:22;12.90;99.90
16038;DHT22;8123;50.906;6.172;2023-03-23T14:26:49;12.90;99.90
16038;DHT22;8123;50.906;6.172;2023-03-23T14:29:20;13.00;99.90
16038;DHT22;8123;50.906;6.172;2023-03-23T14:31:52;13.10;99.90
16038;DHT22;8123;50.906;6.172;2023-03-23T14:34:21;13.10;99.90
16038;DHT22;8123;50.906;6.172;2023-03-23T14:36:48;13.20;99.90
16038;DHT22;8123;50.906;6.172;2023-03-23T14:39:40;13.30;99.90
16038;DHT22;8123;50.906;6.172;2023-03-23T14:42:15;13.40;99.90
16038;DHT22;8123;50.906;6.172;2023-03-23T14:44:45;13.30;99.90
16038;DHT22;8123;50.906;6.172;2023-03-23T14:47:25;13.30;99.90
16038;DHT22;8123;50.906;6.172;2023-03-23T14:49:57;13.30;99.90
16038;DHT22;8123;50.906;6.172;2023-03-23T14:52:28;13.40;99.90
16038;DHT22;8123;50.906;6.172;2023-03-23T14:54:55;13.30;99.90
16038;DHT22;8123;50.906;6.172;2023-03-23T14:59:49;13.50;99.90
16038;DHT22;8123;50.906;6.172;2023-03-23T15:02:36;13.50;99.90
16038;DHT22;8123;50.906;6.172;2023-03-23T15:05:13;13.70;99.90
16038;DHT22;8123;50.906;6.172;2023-03-23T15:07:43;13.70;99.90
16038;DHT22;8123;50.906;6.172;2023-03-23T15:10:15;13.80;99.90
16038;DHT22;8123;50.906;6.172;2023-03-23T15:12:44;13.80;99.90
16038;DHT22;8123;50.906;6.172;2023-03-23T15:15:29;13.90;99.90
16038;DHT22;8123;50.906;6.172;2023-03-23T15:17:56;13.90;99.90
16038;DHT22;8123;50.906;6.172;2023-03-23T15:22:54;14.00;99.90
16038;DHT22;8123;50.906;6.172;2023-03-23T15:25:21;14.00;99.90
16038;DHT22;8123;50.906;6.172;2023-03-23T15:28:19;14.20;99.90
16038;DHT22;8123;50.906;6.172;2023-03-23T15:30:51;14.30;99.90
16038;DHT22;8123;50.906;6.172;2023-03-23T15:33:19;14.30;99.90
16038;DHT22;8123;50.906;6.172;2023-03-23T15:35:51;14.40;99.90
16038;DHT22;8123;50.906;6.172;2023-03-23T15:38:36;14.40;99.90
16038;DHT22;8123;50.906;6.172;2023-03-23T15:41:06;14.40;99.90
16038;DHT22;8123;50.906;6.172;2023-03-23T15:43:53;14.50;99.90
16038;DHT22;8123;50.906;6.172;2023-03-23T15:46:22;14.50;99.90
16038;DHT22;8123;50.906;6.172;2023-03-23T15:48:49;14.50;99.90
16038;DHT22;8123;50.906;6.172;2023-03-23T15:51:17;14.50;99.90
16038;DHT22;8123;50.906;6.172;2023-03-23T15:53:43;14.50;99.90
16038;DHT22;8123;50.906;6.172;2023-03-23T15:56:11;14.50;99.90
16038;DHT22;8123;50.906;6.172;2023-03-23T15:58:38;14.50;99.90
16038;DHT22;8123;50.906;6.172;2023-03-23T16:01:16;14.40;99.90
16038;DHT22;8123;50.906;6.172;2023-03-23T16:03:56;14.40;99.90
16038;DHT22;8123;50.906;6.172;2023-03-23T16:06:25;14.30;99.90
16038;DHT22;8123;50.906;6.172;2023-03-23T16:08:55;14.30;99.90
16038;DHT22;8123;50.906;6.172;2023-03-23T16:11:22;14.30;99.90
16038;DHT22;8123;50.906;6.172;2023-03-23T16:13:48;14.40;99.90
16038;DHT22;8123;50.906;6.172;2023-03-23T16:16:26;14.40;99.90
16038;DHT22;8123;50.906;6.172;2023-03-23T16:18:52;14.50;99.90
16038;DHT22;8123;50.906;6.172;2023-03-23T16:21:18;14.50;99.90
16038;DHT22;8123;50.906;6.172;2023-03-23T16:23:44;14.50;99.90
16038;DHT22;8123;50.906;6.172;2023-03-23T16:26:11;14.50;99.90
16038;DHT22;8123;50.906;6.172;2023-03-23T16:28:37;14.60;99.90
16038;DHT22;8123;50.906;6.172;2023-03-23T16:31:03;14.60;99.90
16038;DHT22;8123;50.906;6.172;2023-03-23T16:33:29;14.60;99.90
16038;DHT22;8123;50.906;6.172;2023-03-23T16:35:54;14.50;99.90
16038;DHT22;8123;50.906;6.172;2023-03-23T16:38:22;14.50;99.90
16038;DHT22;8123;50.906;6.172;2023-03-23T16:40:47;14.40;99.90
16038;DHT22;8123;50.906;6.172;2023-03-23T16:43:13;14.40;99.90
16038;DHT22;8123;50.906;6.172;2023-03-23T16:45:41;14.30;99.90
16038;DHT22;8123;50.906;6.172;2023-03-23T16:48:07;14.40;99.90
16038;DHT22;8123;50.906;6.172;2023-03-23T16:50:34;14.30;99.90
16038;DHT22;8123;50.906;6.172;2023-03-23T16:53:02;14.30;99.90
16038;DHT22;8123;50.906;6.172;2023-03-23T16:55:29;14.30;99.90
16038;DHT22;8123;50.906;6.172;2023-03-23T16:57:56;14.20;99.90
16038;DHT22;8123;50.906;6.172;2023-03-23T17:00:23;14.10;99.90
16038;DHT22;8123;50.906;6.172;2023-03-23T17:02:52;14.00;99.90
16038;DHT22;8123;50.906;6.172;2023-03-23T17:05:19;14.00;99.90
16038;DHT22;8123;50.906;6.172;2023-03-23T17:07:45;13.90;99.90
16038;DHT22;8123;50.906;6.172;2023-03-23T17:10:12;13.90;99.90
16038;DHT22;8123;50.906;6.172;2023-03-23T17:12:38;13.90;99.90
16038;DHT22;8123;50.906;6.172;2023-03-23T17:15:04;13.90;99.90
16038;DHT22;8123;50.906;6.172;2023-03-23T17:17:30;13.90;99.90
16038;DHT22;8123;50.906;6.172;2023-03-23T17:19:56;14.00;99.90
16038;DHT22;8123;50.906;6.172;2023-03-23T17:22:23;14.00;99.90
16038;DHT22;8123;50.906;6.172;2023-03-23T17:24:48;14.00;99.90
16038;DHT22;8123;50.906;6.172;2023-03-23T17:27:16;13.90;99.90
16038;DHT22;8123;50.906;6.172;2023-03-23T17:29:42;13.90;99.90
16038;DHT22;8123;50.906;6.172;2023-03-23T17:32:08;13.90;99.90
16038;DHT22;8123;50.906;6.172;2023-03-23T17:34:34;13.90;99.90
16038;DHT22;8123;50.906;6.172;2023-03-23T17:37:00;13.80;99.90
16038;DHT22;8123;50.906;6.172;2023-03-23T17:39:25;13.80;99.90
16038;DHT22;8123;50.906;6.172;2023-03-23T17:41:52;13.80;99.90
16038;DHT22;8123;50.906;6.172;2023-03-23T17:44:18;13.80;99.90
16038;DHT22;8123;50.906;6.172;2023-03-23T17:46:44;13.70;99.90
16038;DHT22;8123;50.906;6.172;2023-03-23T17:49:10;13.70;99.90
16038;DHT22;8123;50.906;6.172;2023-03-23T17:51:35;13.70;99.90
16038;DHT22;8123;50.906;6.172;2023-03-23T17:54:01;13.70;99.90
16038;DHT22;8123;50.906;6.172;2023-03-23T17:56:26;13.60;99.90
16038;DHT22;8123;50.906;6.172;2023-03-23T17:58:53;13.60;99.90
16038;DHT22;8123;50.906;6.172;2023-03-23T18:01:18;13.60;99.90